NKS480 KMSY-KTPA
Flight info
| Callsign | NKS480 |
|---|---|
| Flight time | 1h 7m |
| Altitude | 35000 |
| Route | REDFN Y280 CHRGE RAYZZ3 |
| Aircraft | A320/M-SDE3FGHIRWY/LB1 |
Departure
| Time | 2026-05-04 15:02 |
|---|---|
| Airport | Louis Armstrong New Orleans International Airport (KMSY) |
Arrival
| Time | 2026-05-04 16:10 |
|---|---|
| Airport | Tampa International Airport (KTPA) |
| Time | Latitude | Longitude | Altitude | Speed | Heading |
|---|---|---|---|---|---|
| 2026-05-04 14:32 | 29.99296 | -90.25327 | 7 ft | 0 kts | 324° |
| 2026-05-04 14:52 | 29.99293 | -90.25324 | 7 ft | 3 kts | 324° |
| 2026-05-04 14:53 | 29.99271 | -90.25306 | 7 ft | 4 kts | 322° |
| 2026-05-04 14:53 | 29.99254 | -90.25284 | 8 ft | 4 kts | 286° |
| 2026-05-04 14:53 | 29.99255 | -90.25259 | 8 ft | 4 kts | 225° |
| 2026-05-04 14:53 | 29.99263 | -90.25251 | 10 ft | 1 kts | 217° |
| 2026-05-04 14:56 | 29.99261 | -90.25253 | 8 ft | 2 kts | 217° |
| 2026-05-04 14:56 | 29.99240 | -90.25272 | 8 ft | 6 kts | 222° |
| 2026-05-04 14:56 | 29.99213 | -90.25324 | 9 ft | 9 kts | 246° |
| 2026-05-04 14:56 | 29.99200 | -90.25403 | 8 ft | 11 kts | 271° |
| 2026-05-04 14:57 | 29.99204 | -90.25505 | 8 ft | 14 kts | 273° |
| 2026-05-04 14:57 | 29.99200 | -90.25633 | 5 ft | 17 kts | 272° |
| 2026-05-04 14:57 | 29.99223 | -90.25770 | 4 ft | 13 kts | 284° |
| 2026-05-04 14:57 | 29.99257 | -90.25846 | 4 ft | 12 kts | 319° |
| 2026-05-04 14:58 | 29.99332 | -90.25882 | 3 ft | 10 kts | 323° |
| 2026-05-04 14:58 | 29.99359 | -90.25970 | 3 ft | 13 kts | 285° |
| 2026-05-04 14:58 | 29.99384 | -90.26076 | 5 ft | 14 kts | 285° |
| 2026-05-04 14:58 | 29.99410 | -90.26185 | 7 ft | 15 kts | 285° |
| 2026-05-04 14:59 | 29.99440 | -90.26307 | 8 ft | 17 kts | 286° |
| 2026-05-04 14:59 | 29.99473 | -90.26445 | 9 ft | 19 kts | 285° |
| 2026-05-04 14:59 | 29.99548 | -90.26763 | 10 ft | 23 kts | 285° |
| 2026-05-04 15:00 | 29.99591 | -90.26947 | 11 ft | 25 kts | 287° |
| 2026-05-04 15:00 | 29.99647 | -90.27154 | 6 ft | 29 kts | 287° |
| 2026-05-04 15:00 | 29.99691 | -90.27342 | 5 ft | 15 kts | 284° |
| 2026-05-04 15:01 | 29.99748 | -90.27593 | 4 ft | 13 kts | 273° |
| 2026-05-04 15:01 | 29.99692 | -90.27677 | 2 ft | 16 kts | 202° |
| 2026-05-04 15:01 | 29.99574 | -90.27699 | 0 ft | 18 kts | 163° |
| 2026-05-04 15:01 | 29.99514 | -90.27556 | 1 ft | 35 kts | 105° |
| 2026-05-04 15:02 | 29.99381 | -90.27008 | 8 ft | 103 kts | 105° |
| 2026-05-04 15:02 | 29.99141 | -90.26012 | 10 ft | 153 kts | 105° |
| 2026-05-04 15:02 | 29.98848 | -90.24769 | 491 ft | 160 kts | 107° |
| 2026-05-04 15:02 | 29.98573 | -90.23530 | 1177 ft | 159 kts | 104° |
| 2026-05-04 15:03 | 29.98327 | -90.22284 | 1837 ft | 162 kts | 104° |
| 2026-05-04 15:03 | 29.98082 | -90.20929 | 2192 ft | 181 kts | 103° |
| 2026-05-04 15:03 | 29.97822 | -90.19428 | 2558 ft | 201 kts | 102° |
| 2026-05-04 15:03 | 29.97552 | -90.17765 | 2881 ft | 228 kts | 101° |
| 2026-05-04 15:04 | 29.97256 | -90.15865 | 3363 ft | 253 kts | 101° |
| 2026-05-04 15:04 | 29.96876 | -90.13830 | 4111 ft | 261 kts | 112° |
| 2026-05-04 15:04 | 29.95896 | -90.12079 | 5131 ft | 262 kts | 131° |
| 2026-05-04 15:04 | 29.94694 | -90.10532 | 6079 ft | 264 kts | 133° |
| 2026-05-04 15:05 | 29.93435 | -90.08945 | 6891 ft | 272 kts | 133° |
| 2026-05-04 15:05 | 29.92129 | -90.07279 | 7633 ft | 281 kts | 133° |
| 2026-05-04 15:05 | 29.90825 | -90.05602 | 8382 ft | 288 kts | 133° |
| 2026-05-04 15:05 | 29.89491 | -90.03858 | 9175 ft | 294 kts | 132° |
| 2026-05-04 15:06 | 29.88138 | -90.02055 | 9999 ft | 300 kts | 131° |
| 2026-05-04 15:07 | 29.83800 | -89.96214 | 11437 ft | 343 kts | 131° |
| 2026-05-04 15:07 | 29.82236 | -89.94111 | 12124 ft | 348 kts | 132° |
| 2026-05-04 15:07 | 29.80647 | -89.91977 | 12813 ft | 353 kts | 132° |
| 2026-05-04 15:07 | 29.79040 | -89.89822 | 13511 ft | 357 kts | 132° |
| 2026-05-04 15:08 | 29.77403 | -89.87637 | 14178 ft | 361 kts | 133° |
| 2026-05-04 15:08 | 29.75747 | -89.85430 | 14761 ft | 366 kts | 133° |
| 2026-05-04 15:08 | 29.74068 | -89.83193 | 15325 ft | 371 kts | 133° |
| 2026-05-04 15:08 | 29.72369 | -89.80925 | 15892 ft | 376 kts | 133° |
| 2026-05-04 15:09 | 29.70650 | -89.78627 | 16445 ft | 381 kts | 133° |
| 2026-05-04 15:09 | 29.68907 | -89.76298 | 16995 ft | 386 kts | 133° |
| 2026-05-04 15:09 | 29.67143 | -89.73945 | 17568 ft | 391 kts | 133° |
| 2026-05-04 15:10 | 29.63560 | -89.69175 | 18647 ft | 401 kts | 134° |
| 2026-05-04 15:10 | 29.61701 | -89.66703 | 19143 ft | 406 kts | 134° |
| 2026-05-04 15:10 | 29.57970 | -89.61730 | 20136 ft | 416 kts | 134° |
| 2026-05-04 15:11 | 29.56093 | -89.59235 | 20619 ft | 420 kts | 134° |
| 2026-05-04 15:11 | 29.54147 | -89.56652 | 21100 ft | 425 kts | 134° |
| 2026-05-04 15:11 | 29.52859 | -89.54945 | 21390 ft | 428 kts | 134° |
| 2026-05-04 15:11 | 29.50903 | -89.52355 | 21852 ft | 432 kts | 134° |
| 2026-05-04 15:12 | 29.48280 | -89.48881 | 22458 ft | 437 kts | 134° |
| 2026-05-04 15:12 | 29.46279 | -89.46228 | 22900 ft | 441 kts | 134° |
| 2026-05-04 15:12 | 29.44919 | -89.44427 | 23215 ft | 444 kts | 135° |
| 2026-05-04 15:12 | 29.42885 | -89.41735 | 23664 ft | 448 kts | 135° |
| 2026-05-04 15:13 | 29.40860 | -89.39056 | 24043 ft | 452 kts | 135° |
| 2026-05-04 15:13 | 29.38790 | -89.36320 | 24427 ft | 455 kts | 135° |
| 2026-05-04 15:13 | 29.36707 | -89.33575 | 24810 ft | 458 kts | 135° |
| 2026-05-04 15:13 | 29.34608 | -89.30811 | 25186 ft | 462 kts | 135° |
| 2026-05-04 15:14 | 29.32489 | -89.28023 | 25561 ft | 465 kts | 135° |
| 2026-05-04 15:14 | 29.30356 | -89.25215 | 25942 ft | 468 kts | 135° |
| 2026-05-04 15:14 | 29.28213 | -89.22393 | 26342 ft | 471 kts | 135° |
| 2026-05-04 15:14 | 29.26055 | -89.19549 | 26723 ft | 474 kts | 135° |
| 2026-05-04 15:15 | 29.23888 | -89.16694 | 27082 ft | 477 kts | 135° |
| 2026-05-04 15:15 | 29.21687 | -89.13799 | 27449 ft | 480 kts | 135° |
| 2026-05-04 15:15 | 29.19508 | -89.10940 | 27803 ft | 483 kts | 135° |
| 2026-05-04 15:16 | 29.15061 | -89.05113 | 28517 ft | 489 kts | 135° |
| 2026-05-04 15:16 | 29.12817 | -89.02177 | 28861 ft | 492 kts | 135° |
| 2026-05-04 15:16 | 29.08274 | -88.96235 | 29570 ft | 499 kts | 135° |
| 2026-05-04 15:17 | 29.05982 | -88.93234 | 29928 ft | 502 kts | 135° |
| 2026-05-04 15:17 | 29.01356 | -88.87189 | 30572 ft | 508 kts | 135° |
| 2026-05-04 15:17 | 28.99023 | -88.84151 | 30889 ft | 510 kts | 135° |
| 2026-05-04 15:18 | 28.96676 | -88.81094 | 31212 ft | 512 kts | 135° |
| 2026-05-04 15:18 | 28.94324 | -88.78034 | 31478 ft | 515 kts | 135° |
| 2026-05-04 15:18 | 28.91954 | -88.74949 | 31765 ft | 517 kts | 135° |
| 2026-05-04 15:19 | 28.87970 | -88.68077 | 32601 ft | 524 kts | 116° |
| 2026-05-04 15:19 | 28.86637 | -88.64206 | 33030 ft | 524 kts | 108° |
| 2026-05-04 15:19 | 28.84462 | -88.56268 | 33909 ft | 523 kts | 108° |
| 2026-05-04 15:20 | 28.83371 | -88.52317 | 34312 ft | 523 kts | 108° |
| 2026-05-04 15:20 | 28.82275 | -88.48368 | 34727 ft | 521 kts | 108° |
| 2026-05-04 15:20 | 28.81183 | -88.44438 | 35037 ft | 520 kts | 108° |
| 2026-05-04 15:20 | 28.80091 | -88.40520 | 35125 ft | 515 kts | 108° |
| 2026-05-04 15:21 | 28.77935 | -88.32811 | 35135 ft | 508 kts | 108° |
| 2026-05-04 15:22 | 28.74721 | -88.21325 | 35138 ft | 507 kts | 108° |
| 2026-05-04 15:22 | 28.71513 | -88.09915 | 35136 ft | 507 kts | 108° |
| 2026-05-04 15:23 | 28.69360 | -88.02267 | 35142 ft | 506 kts | 108° |
| 2026-05-04 15:23 | 28.67206 | -87.94636 | 35145 ft | 506 kts | 108° |
| 2026-05-04 15:24 | 28.62887 | -87.79387 | 35109 ft | 506 kts | 109° |
| 2026-05-04 15:25 | 28.60707 | -87.71752 | 35118 ft | 507 kts | 109° |
| 2026-05-04 15:26 | 28.57449 | -87.60296 | 35137 ft | 507 kts | 109° |
| 2026-05-04 15:26 | 28.54174 | -87.48853 | 35148 ft | 507 kts | 109° |
| 2026-05-04 15:27 | 28.50891 | -87.37429 | 35143 ft | 507 kts | 109° |
| 2026-05-04 15:28 | 28.47599 | -87.26003 | 35147 ft | 507 kts | 109° |
| 2026-05-04 15:29 | 28.44297 | -87.14585 | 35148 ft | 507 kts | 109° |
| 2026-05-04 15:30 | 28.36582 | -86.88024 | 35145 ft | 507 kts | 109° |
| 2026-05-04 15:31 | 28.33239 | -86.76633 | 35142 ft | 507 kts | 109° |
| 2026-05-04 15:32 | 28.27701 | -86.57673 | 35136 ft | 506 kts | 109° |
| 2026-05-04 15:34 | 28.22164 | -86.38754 | 35124 ft | 505 kts | 109° |
| 2026-05-04 15:34 | 28.21055 | -86.34981 | 35002 ft | 505 kts | 109° |
| 2026-05-04 15:34 | 28.18826 | -86.27426 | 34762 ft | 505 kts | 110° |
| 2026-05-04 15:35 | 28.16603 | -86.19870 | 34537 ft | 506 kts | 110° |
| 2026-05-04 15:35 | 28.15489 | -86.16085 | 34419 ft | 506 kts | 110° |
| 2026-05-04 15:35 | 28.14373 | -86.12303 | 34304 ft | 507 kts | 110° |
| 2026-05-04 15:36 | 28.12123 | -86.04722 | 34065 ft | 508 kts | 110° |
| 2026-05-04 15:36 | 28.10993 | -86.00935 | 33934 ft | 508 kts | 110° |
| 2026-05-04 15:36 | 28.09870 | -85.97181 | 33798 ft | 509 kts | 110° |
| 2026-05-04 15:37 | 28.08738 | -85.93391 | 33645 ft | 509 kts | 110° |
| 2026-05-04 15:37 | 28.07603 | -85.89590 | 33487 ft | 509 kts | 110° |
| 2026-05-04 15:37 | 28.06471 | -85.85787 | 33329 ft | 509 kts | 110° |
| 2026-05-04 15:37 | 28.05340 | -85.81991 | 33163 ft | 510 kts | 110° |
| 2026-05-04 15:38 | 28.04201 | -85.78187 | 33018 ft | 510 kts | 110° |
| 2026-05-04 15:38 | 28.03066 | -85.74390 | 32865 ft | 510 kts | 110° |
| 2026-05-04 15:38 | 28.01936 | -85.70608 | 32705 ft | 500 kts | 110° |
| 2026-05-04 15:38 | 28.00833 | -85.66918 | 32554 ft | 490 kts | 110° |
| 2026-05-04 15:39 | 27.99744 | -85.63282 | 32380 ft | 486 kts | 110° |
| 2026-05-04 15:39 | 27.98661 | -85.59671 | 32202 ft | 483 kts | 110° |
| 2026-05-04 15:39 | 27.96499 | -85.52494 | 31901 ft | 481 kts | 110° |
| 2026-05-04 15:40 | 27.95419 | -85.48923 | 31755 ft | 480 kts | 110° |
| 2026-05-04 15:40 | 27.94333 | -85.45342 | 31607 ft | 479 kts | 110° |
| 2026-05-04 15:40 | 27.93252 | -85.41785 | 31465 ft | 479 kts | 110° |
| 2026-05-04 15:40 | 27.92174 | -85.38232 | 31309 ft | 478 kts | 110° |
| 2026-05-04 15:41 | 27.91096 | -85.34675 | 31131 ft | 477 kts | 110° |
| 2026-05-04 15:41 | 27.88955 | -85.27589 | 31120 ft | 477 kts | 110° |
| 2026-05-04 15:42 | 27.87487 | -85.20272 | 31113 ft | 478 kts | 101° |
| 2026-05-04 15:42 | 27.86255 | -85.12892 | 31114 ft | 478 kts | 101° |
| 2026-05-04 15:43 | 27.85014 | -85.05554 | 30746 ft | 477 kts | 101° |
| 2026-05-04 15:43 | 27.84389 | -85.01879 | 30424 ft | 475 kts | 101° |
| 2026-05-04 15:43 | 27.83771 | -84.98222 | 30082 ft | 474 kts | 101° |
| 2026-05-04 15:43 | 27.83157 | -84.94571 | 29703 ft | 471 kts | 101° |
| 2026-05-04 15:44 | 27.82549 | -84.90955 | 29328 ft | 468 kts | 101° |
| 2026-05-04 15:44 | 27.81944 | -84.87349 | 28955 ft | 464 kts | 101° |
| 2026-05-04 15:44 | 27.81457 | -84.83759 | 28588 ft | 460 kts | 94° |
| 2026-05-04 15:44 | 27.81386 | -84.80172 | 28227 ft | 455 kts | 85° |
| 2026-05-04 15:45 | 27.81566 | -84.76614 | 27866 ft | 452 kts | 85° |
| 2026-05-04 15:45 | 27.81739 | -84.73089 | 27514 ft | 448 kts | 85° |
| 2026-05-04 15:45 | 27.81906 | -84.69584 | 27165 ft | 445 kts | 85° |
| 2026-05-04 15:45 | 27.82070 | -84.66105 | 26819 ft | 441 kts | 85° |
| 2026-05-04 15:46 | 27.82232 | -84.62663 | 26482 ft | 438 kts | 85° |
| 2026-05-04 15:46 | 27.82393 | -84.59241 | 26145 ft | 434 kts | 85° |
| 2026-05-04 15:46 | 27.82552 | -84.55846 | 25813 ft | 431 kts | 85° |
| 2026-05-04 15:46 | 27.82710 | -84.52478 | 25485 ft | 427 kts | 86° |
| 2026-05-04 15:47 | 27.82864 | -84.49140 | 25156 ft | 424 kts | 86° |
| 2026-05-04 15:47 | 27.83016 | -84.45832 | 24835 ft | 421 kts | 86° |
| 2026-05-04 15:47 | 27.83169 | -84.42543 | 24518 ft | 417 kts | 86° |
| 2026-05-04 15:47 | 27.83321 | -84.39278 | 24204 ft | 414 kts | 86° |
| 2026-05-04 15:48 | 27.83467 | -84.36081 | 23906 ft | 411 kts | 86° |
| 2026-05-04 15:48 | 27.83612 | -84.32864 | 23579 ft | 408 kts | 86° |
| 2026-05-04 15:48 | 27.83903 | -84.26506 | 22839 ft | 402 kts | 86° |
| 2026-05-04 15:49 | 27.84047 | -84.23366 | 22476 ft | 399 kts | 86° |
| 2026-05-04 15:49 | 27.84187 | -84.20243 | 22119 ft | 396 kts | 86° |
| 2026-05-04 15:49 | 27.84323 | -84.17148 | 21767 ft | 393 kts | 86° |
| 2026-05-04 15:49 | 27.84457 | -84.14069 | 21419 ft | 391 kts | 86° |
| 2026-05-04 15:50 | 27.84590 | -84.11010 | 21074 ft | 388 kts | 86° |
| 2026-05-04 15:50 | 27.84721 | -84.07972 | 20734 ft | 386 kts | 86° |
| 2026-05-04 15:50 | 27.84852 | -84.04961 | 20401 ft | 383 kts | 86° |
| 2026-05-04 15:50 | 27.84983 | -84.01966 | 20069 ft | 380 kts | 86° |
| 2026-05-04 15:51 | 27.85111 | -83.98993 | 19737 ft | 378 kts | 86° |
| 2026-05-04 15:51 | 27.85237 | -83.96033 | 19412 ft | 376 kts | 86° |
| 2026-05-04 15:51 | 27.85364 | -83.93093 | 19090 ft | 373 kts | 86° |
| 2026-05-04 15:51 | 27.85502 | -83.90176 | 18775 ft | 371 kts | 85° |
| 2026-05-04 15:52 | 27.85702 | -83.87279 | 18459 ft | 368 kts | 84° |
| 2026-05-04 15:52 | 27.85942 | -83.84414 | 18102 ft | 366 kts | 83° |
| 2026-05-04 15:52 | 27.86201 | -83.81534 | 17741 ft | 371 kts | 83° |
| 2026-05-04 15:52 | 27.86462 | -83.78631 | 17382 ft | 370 kts | 83° |
| 2026-05-04 15:53 | 27.86714 | -83.75742 | 17028 ft | 368 kts | 83° |
| 2026-05-04 15:53 | 27.86957 | -83.72882 | 16678 ft | 365 kts | 84° |
| 2026-05-04 15:53 | 27.87191 | -83.70039 | 16332 ft | 362 kts | 84° |
| 2026-05-04 15:53 | 27.87420 | -83.67224 | 15990 ft | 359 kts | 84° |
| 2026-05-04 15:54 | 27.87645 | -83.64427 | 15650 ft | 356 kts | 84° |
| 2026-05-04 15:54 | 27.87864 | -83.61653 | 15315 ft | 353 kts | 84° |
| 2026-05-04 15:54 | 27.88080 | -83.58908 | 14982 ft | 350 kts | 84° |
| 2026-05-04 15:54 | 27.88297 | -83.56178 | 14653 ft | 347 kts | 84° |
| 2026-05-04 15:55 | 27.88515 | -83.53468 | 14330 ft | 344 kts | 84° |
| 2026-05-04 15:55 | 27.88731 | -83.50781 | 14009 ft | 342 kts | 84° |
| 2026-05-04 15:55 | 27.88942 | -83.48111 | 13657 ft | 340 kts | 84° |
| 2026-05-04 15:55 | 27.89146 | -83.45494 | 13299 ft | 337 kts | 84° |
| 2026-05-04 15:56 | 27.89351 | -83.42865 | 12943 ft | 335 kts | 84° |
| 2026-05-04 15:56 | 27.89556 | -83.40249 | 12589 ft | 334 kts | 84° |
| 2026-05-04 15:56 | 27.89761 | -83.37643 | 12238 ft | 331 kts | 84° |
| 2026-05-04 15:56 | 27.89966 | -83.35054 | 11891 ft | 329 kts | 84° |
| 2026-05-04 15:57 | 27.90169 | -83.32484 | 11557 ft | 326 kts | 84° |
| 2026-05-04 15:57 | 27.90364 | -83.29990 | 11310 ft | 316 kts | 84° |
| 2026-05-04 15:57 | 27.90556 | -83.27520 | 11072 ft | 314 kts | 84° |
| 2026-05-04 15:57 | 27.90745 | -83.25071 | 10829 ft | 312 kts | 84° |
| 2026-05-04 15:58 | 27.90933 | -83.22635 | 10601 ft | 309 kts | 84° |
| 2026-05-04 15:58 | 27.91122 | -83.20215 | 10361 ft | 310 kts | 84° |
| 2026-05-04 15:58 | 27.91215 | -83.17782 | 10124 ft | 309 kts | 96° |
| 2026-05-04 15:58 | 27.90819 | -83.15412 | 9872 ft | 306 kts | 104° |
| 2026-05-04 15:59 | 27.90334 | -83.13074 | 9612 ft | 305 kts | 104° |
| 2026-05-04 15:59 | 27.90005 | -83.11528 | 9443 ft | 304 kts | 104° |
| 2026-05-04 15:59 | 27.89509 | -83.09195 | 9182 ft | 305 kts | 104° |
| 2026-05-04 15:59 | 27.89013 | -83.06873 | 8929 ft | 302 kts | 104° |
| 2026-05-04 16:00 | 27.88521 | -83.04570 | 8670 ft | 300 kts | 104° |
| 2026-05-04 16:00 | 27.88032 | -83.02284 | 8557 ft | 298 kts | 104° |
| 2026-05-04 16:00 | 27.87548 | -83.00016 | 8171 ft | 296 kts | 104° |
| 2026-05-04 16:00 | 27.87057 | -82.97715 | 7921 ft | 303 kts | 104° |
| 2026-05-04 16:01 | 27.86560 | -82.95404 | 7680 ft | 302 kts | 104° |
| 2026-05-04 16:01 | 27.86066 | -82.93106 | 7448 ft | 300 kts | 104° |
| 2026-05-04 16:01 | 27.85575 | -82.90826 | 7214 ft | 297 kts | 104° |
| 2026-05-04 16:01 | 27.85089 | -82.88577 | 6975 ft | 295 kts | 104° |
| 2026-05-04 16:02 | 27.84607 | -82.86336 | 6734 ft | 291 kts | 104° |
| 2026-05-04 16:02 | 27.84135 | -82.84153 | 6505 ft | 281 kts | 104° |
| 2026-05-04 16:02 | 27.83238 | -82.79999 | 6004 ft | 269 kts | 104° |
| 2026-05-04 16:03 | 27.82796 | -82.77944 | 5746 ft | 267 kts | 104° |
| 2026-05-04 16:03 | 27.82365 | -82.75944 | 5503 ft | 264 kts | 104° |
| 2026-05-04 16:03 | 27.81921 | -82.73930 | 5259 ft | 262 kts | 104° |
| 2026-05-04 16:03 | 27.81481 | -82.71946 | 5011 ft | 259 kts | 104° |
| 2026-05-04 16:04 | 27.81044 | -82.69987 | 4760 ft | 256 kts | 103° |
| 2026-05-04 16:04 | 27.80178 | -82.66187 | 4245 ft | 240 kts | 104° |
| 2026-05-04 16:04 | 27.79764 | -82.64411 | 4006 ft | 228 kts | 104° |
| 2026-05-04 16:05 | 27.79362 | -82.62708 | 3762 ft | 224 kts | 103° |
| 2026-05-04 16:05 | 27.78975 | -82.61009 | 3514 ft | 221 kts | 99° |
| 2026-05-04 16:05 | 27.79723 | -82.57947 | 3050 ft | 197 kts | 46° |
| 2026-05-04 16:06 | 27.80728 | -82.56944 | 2980 ft | 195 kts | 41° |
| 2026-05-04 16:06 | 27.83689 | -82.54694 | 2549 ft | 199 kts | 10° |
| 2026-05-04 16:07 | 27.85505 | -82.54601 | 2148 ft | 194 kts | 5° |
| 2026-05-04 16:07 | 27.89273 | -82.54478 | 1418 ft | 165 kts | 6° |
| 2026-05-04 16:08 | 27.90363 | -82.54442 | 1219 ft | 150 kts | 6° |
| 2026-05-04 16:08 | 27.93371 | -82.54341 | 622 ft | 142 kts | 5° |
| 2026-05-04 16:09 | 27.95337 | -82.54272 | 278 ft | 146 kts | 5° |
| 2026-05-04 16:09 | 27.97324 | -82.54202 | 48 ft | 124 kts | 1° |
| 2026-05-04 16:10 | 27.98275 | -82.54125 | 50 ft | 31 kts | 30° |
| 2026-05-04 16:11 | 27.98589 | -82.53835 | 48 ft | 19 kts | 93° |
| 2026-05-04 16:11 | 27.98580 | -82.53663 | 53 ft | 21 kts | 93° |
| 2026-05-04 16:12 | 27.98568 | -82.53224 | 49 ft | 12 kts | 91° |
| 2026-05-04 16:12 | 27.98328 | -82.53042 | 42 ft | 18 kts | 174° |
| 2026-05-04 16:13 | 27.98053 | -82.53051 | 43 ft | 21 kts | 181° |
| 2026-05-04 16:13 | 27.97837 | -82.53090 | 43 ft | 12 kts | 240° |
| 2026-05-04 16:14 | 27.97776 | -82.53185 | 43 ft | 3 kts | 208° |
| 2026-05-04 16:14 | 27.97772 | -82.53187 | 43 ft | 0 kts | 208° |